Pagina principale
METAR-TAF:

METAR-TAF

Aeroporti :

Aeroporto di Bastia Poretta

Bastia, Francia

latitudine: 42-33N, longitudine: 009-29E, altezza: 8 m

Osservazione

Il bollettino è stato emesso 33 minuti fa, alle 18:30 UTC
Vento 4 kt da sud
Temperature 10°C
Umidità 87%
Pressione 1029 hPa
Visibilità 10 km o più
Nubi sparse ad un'altezza di 4100 ft

METAR: LFKB 161830Z AUTO 19004KT 9999 SCT041 10/08 Q1029 NOSIG

Ora: 20:03 (19:03 UTC)

Previsione

Il bollettino è stato emesso 5 ore e 3 minuti fa, alle 14:00 UTC
Previsione valida dal 16 alle 15 UTC al 17 alle 15 UTC
Vento 6 kt da est/sud-est
Visibilità 10 km o più
Nuvoloso ad un'altezza di 2500 ft
Evoluzione graduale
dal 16 alle 18 UTC al 16 alle 20 UTC
Vento 4 kt da ovest/sud-ovest
Evoluzione graduale
dal 17 alle 11 UTC al 17 alle 12 UTC
Vento 10 kt da sud-est

TAF: LFKB 161400Z 1615/1715 12006KT 9999 BKN025 TX15/1712Z TN08/1703Z BECMG 1618/1620 24004KT BECMG 1711/1712 14010KT

Osservazioni e previsioni meteorologiche di più di 4000 aeroporti (messaggi METAR e TAF).

Le stazioni disponibili sono rappresentate dai dischi gialli e rossi sulla carta.

Puntare il mouse per vedere il nome della stazione.

Clicca sopra per visualizzare le osservazioni e previsioni meteorologiche.

Per cambiare la mappa : fare clic sui pulsanti verdi con una croce nera per ingrandire, il pulsante verde con un trattino per diminuire, o sulla freccia verde per le mappe adiacenti.


METAR-TAF: